Header Ads

Latest

PAL confirms runway excursion incident in Cebu; all reported safe

Aviation Updates Philippines – Philippine Airlines confirmed the runway excursion incident on Friday morning at the Mactan-Cebu International Airport, involving its De Havilland Q400 aircraft.

Contributed photo

"We confirm that our Philippine Airlines flight PR2369 experienced a runway excursion upon arrival at Mactan Cebu International Airport in rainy weather at 11:39 AM today, after a flight from Caticlan," PAL said in a statement on Friday afternoon.

The PAL Express propjet, registered RP-C5911, veered off the runway, into the grass at the edge of the runway, according to the flag carrier.

"We thank airport authorities and the CAAP for spearheading the towing of the aircraft back into the runway surface."

29 passengers and four crew members were aboard flight 2P-2369. PAL said all passengers and crew were able to disembark the aircraft safely. No one was injured in the mishap.

PAL's operations team are already assisting the passengers and will provide further assistance and support as needed.

"We affirm that safety is our top priority and that Philippine Airlines is fully cooperating with the concerned airport and aviation authorities," the statement said.

"We apologize for the inconvenience caused by the partial blockage of the runway."

At the time of the incident, rain poured within the aerodrome. METAR displayed winds from 010 degrees at 15 knots.

RPVM 100400Z 36012KT 9999 -RA SCT020 OVC090 26/22 Q1011 RMK A2985

RPVM 100300Z 01015KT 9999 -RA SCT020 OVC100 28/23 Q1011 RMK A2985

No comments

The comments made below do not reflect the views of the blog, Aviation Updates Philippines, its authors, contributors, and the AUP community. Although we have the right to fully exercise our freedom of speech and expression, we must do it responsibly and with due regard for others. Observing proper netiquette is a must.